Owls Head, NY (12969)

7:42 PM EST on February 27, 2015 (GMT -0500)
Chateaugay Lake - Boat Launch | Change Station
CLOSE
Current Station
Personal Weather Station
Location: Merrill, NY
Elevation: 1309 ft
Nearby Weather Stations

Elev 1309 ft 44.77 °N, 73.98 °W | Updated 3 seconds ago

Clear
Clear
6.3 °F
Feels Like -1 °F
N
3.8
Wind Variable Wind from North
Gusts 6.9 mph

Today
High -- | Low -- °F
--% Chance of Precip.
Yesterday
High -- | Low -- °F
Precip. -- in
6:37 AM 5:41 PM
Waxing Gibbous, 73% visible
Pressure 30.50 in
Visibility 10.0 miles
Clouds Clear
Windchill -1 °F
Dew Point -10 °F
Humidity 46%
Rainfall 0.00 in
Snow Depth Not available.
UV 0 out of 12
Pollen .30 out of 12
Air Quality Not available.
Flu Activity Not available.
METAR KSLK 272351Z AUTO 25007KT 10SM CLR M14/M22 A3034 RMK AO2 SLP328 T11391222 11089 21139 53028

More Conditions Fewer Conditions

Pressure 30.50 in
Visibility 10.0 miles
Clouds Clear
Windchill -1 °F
Dew Point -10 °F
Humidity 46%
Rainfall 0.00 in
Snow Depth Not available.
UV 0 out of 12
Pollen .30 out of 12
Air Quality Not available.
Flu Activity Not available.
METAR KSLK 272351Z AUTO 25007KT 10SM CLR M14/M22 A3034 RMK AO2 SLP328 T11391222 11089 21139 53028

More Conditions Fewer Conditions

10-Day Weather Forecast

Almanac

Astronomy

Feb. 27, 2015 Rise Set
Actual Time
Civil Twilight
Nautical Twilight
Astronomical Twilight
Moon
Length of Visible Light
Length of Day
Tomorrow will be .
, % of the Moon is Illuminated

Today's Extremes

State Highs State Lows

Community

WunderPhotos

Upload Photos

1,800,910 photos uploaded!

WunderBlogs® & News

Nearby

Air Quality

  Air Quality AQ Index Pollutant
Not available.

Snow Depth

Station Depth Elevation

Earthquake Activity

City Distance Mag. Time & Date
Minimum magnitude displayed is 2.5.

Coastal Water Temperatures

Place Temperature

Nearby Weather Stations